sensor_id;sensor_type;location;lat;lon;timestamp;P1;durP1;ratioP1;P2;durP2;ratioP2
4345;SDS011;2186;49.866;7.986;2022-10-31T00:00:47;5.60;;;1.70;;
4345;SDS011;2186;49.866;7.986;2022-10-31T00:03:14;3.20;;;2.30;;
4345;SDS011;2186;49.866;7.986;2022-10-31T00:05:44;11.10;;;3.00;;
4345;SDS011;2186;49.866;7.986;2022-10-31T00:08:13;2.97;;;2.67;;
4345;SDS011;2186;49.866;7.986;2022-10-31T00:10:40;3.33;;;2.90;;
4345;SDS011;2186;49.866;7.986;2022-10-31T00:13:08;2.70;;;1.83;;
4345;SDS011;2186;49.866;7.986;2022-10-31T00:15:35;3.53;;;3.23;;
4345;SDS011;2186;49.866;7.986;2022-10-31T00:18:02;1.73;;;1.63;;
4345;SDS011;2186;49.866;7.986;2022-10-31T00:20:30;2.77;;;2.57;;
4345;SDS011;2186;49.866;7.986;2022-10-31T00:23:00;1.53;;;1.40;;
4345;SDS011;2186;49.866;7.986;2022-10-31T00:25:27;1.93;;;1.60;;
4345;SDS011;2186;49.866;7.986;2022-10-31T00:27:55;3.80;;;1.87;;
4345;SDS011;2186;49.866;7.986;2022-10-31T00:30:22;1.60;;;1.50;;
4345;SDS011;2186;49.866;7.986;2022-10-31T00:32:48;2.20;;;1.77;;
4345;SDS011;2186;49.866;7.986;2022-10-31T00:35:15;1.50;;;1.10;;
4345;SDS011;2186;49.866;7.986;2022-10-31T00:37:41;4.00;;;2.10;;
4345;SDS011;2186;49.866;7.986;2022-10-31T00:40:08;3.03;;;1.67;;
4345;SDS011;2186;49.866;7.986;2022-10-31T00:42:35;1.90;;;1.40;;
4345;SDS011;2186;49.866;7.986;2022-10-31T00:45:01;3.13;;;1.90;;
4345;SDS011;2186;49.866;7.986;2022-10-31T00:47:27;1.60;;;1.50;;
4345;SDS011;2186;49.866;7.986;2022-10-31T00:49:54;2.33;;;2.13;;
4345;SDS011;2186;49.866;7.986;2022-10-31T00:52:20;8.10;;;3.30;;
4345;SDS011;2186;49.866;7.986;2022-10-31T00:54:46;2.07;;;1.73;;
4345;SDS011;2186;49.866;7.986;2022-10-31T00:57:13;4.00;;;2.30;;
4345;SDS011;2186;49.866;7.986;2022-10-31T00:59:39;2.27;;;2.17;;
4345;SDS011;2186;49.866;7.986;2022-10-31T01:02:05;4.00;;;2.43;;
4345;SDS011;2186;49.866;7.986;2022-10-31T01:04:32;2.40;;;1.67;;
4345;SDS011;2186;49.866;7.986;2022-10-31T01:06:58;3.70;;;2.97;;
4345;SDS011;2186;49.866;7.986;2022-10-31T01:09:25;3.37;;;2.00;;
4345;SDS011;2186;49.866;7.986;2022-10-31T01:11:51;3.00;;;2.80;;
4345;SDS011;2186;49.866;7.986;2022-10-31T01:14:17;3.50;;;3.30;;
4345;SDS011;2186;49.866;7.986;2022-10-31T01:16:44;2.43;;;2.23;;
4345;SDS011;2186;49.866;7.986;2022-10-31T01:19:10;2.47;;;2.10;;
4345;SDS011;2186;49.866;7.986;2022-10-31T01:21:37;2.60;;;2.30;;
4345;SDS011;2186;49.866;7.986;2022-10-31T01:24:03;2.60;;;2.40;;
4345;SDS011;2186;49.866;7.986;2022-10-31T01:26:30;2.53;;;1.90;;
4345;SDS011;2186;49.866;7.986;2022-10-31T01:28:59;4.70;;;2.10;;
4345;SDS011;2186;49.866;7.986;2022-10-31T01:31:29;1.47;;;1.37;;
4345;SDS011;2186;49.866;7.986;2022-10-31T01:33:58;8.97;;;2.40;;
4345;SDS011;2186;49.866;7.986;2022-10-31T01:36:26;1.77;;;1.67;;
4345;SDS011;2186;49.866;7.986;2022-10-31T01:38:58;1.90;;;1.80;;
4345;SDS011;2186;49.866;7.986;2022-10-31T01:41:29;2.33;;;2.23;;
4345;SDS011;2186;49.866;7.986;2022-10-31T01:43:58;5.37;;;2.47;;
4345;SDS011;2186;49.866;7.986;2022-10-31T01:48:59;3.93;;;3.17;;
4345;SDS011;2186;49.866;7.986;2022-10-31T01:51:30;3.43;;;2.87;;
4345;SDS011;2186;49.866;7.986;2022-10-31T01:54:01;2.50;;;2.30;;
4345;SDS011;2186;49.866;7.986;2022-10-31T01:56:32;2.40;;;2.20;;
4345;SDS011;2186;49.866;7.986;2022-10-31T01:59:02;4.17;;;2.47;;
4345;SDS011;2186;49.866;7.986;2022-10-31T02:01:34;4.50;;;3.63;;
4345;SDS011;2186;49.866;7.986;2022-10-31T02:04:01;9.93;;;1.73;;
4345;SDS011;2186;49.866;7.986;2022-10-31T02:06:42;2.33;;;2.13;;
4345;SDS011;2186;49.866;7.986;2022-10-31T02:09:12;2.67;;;2.50;;
4345;SDS011;2186;49.866;7.986;2022-10-31T02:11:40;2.40;;;2.23;;
4345;SDS011;2186;49.866;7.986;2022-10-31T02:14:08;1.93;;;1.83;;
4345;SDS011;2186;49.866;7.986;2022-10-31T02:16:34;1.83;;;1.73;;
4345;SDS011;2186;49.866;7.986;2022-10-31T02:19:01;2.43;;;2.23;;
4345;SDS011;2186;49.866;7.986;2022-10-31T02:21:37;2.43;;;2.27;;
4345;SDS011;2186;49.866;7.986;2022-10-31T02:24:32;13.63;;;1.50;;
4345;SDS011;2186;49.866;7.986;2022-10-31T02:30:11;8.20;;;2.57;;
4345;SDS011;2186;49.866;7.986;2022-10-31T02:32:50;1.60;;;1.50;;
4345;SDS011;2186;49.866;7.986;2022-10-31T02:38:19;1.60;;;1.27;;
4345;SDS011;2186;49.866;7.986;2022-10-31T02:41:19;1.70;;;1.60;;
4345;SDS011;2186;49.866;7.986;2022-10-31T02:44:03;7.03;;;1.47;;
4345;SDS011;2186;49.866;7.986;2022-10-31T02:46:45;3.07;;;2.93;;
4345;SDS011;2186;49.866;7.986;2022-10-31T02:49:21;1.50;;;1.40;;
4345;SDS011;2186;49.866;7.986;2022-10-31T02:51:55;3.50;;;3.17;;
4345;SDS011;2186;49.866;7.986;2022-10-31T02:54:22;7.07;;;3.97;;
4345;SDS011;2186;49.866;7.986;2022-10-31T02:56:52;2.20;;;1.73;;
4345;SDS011;2186;49.866;7.986;2022-10-31T02:59:23;2.07;;;1.97;;
4345;SDS011;2186;49.866;7.986;2022-10-31T03:01:56;6.30;;;2.17;;
4345;SDS011;2186;49.866;7.986;2022-10-31T03:07:11;2.53;;;2.07;;
4345;SDS011;2186;49.866;7.986;2022-10-31T03:09:54;11.73;;;3.10;;
4345;SDS011;2186;49.866;7.986;2022-10-31T03:12:45;2.13;;;1.93;;
4345;SDS011;2186;49.866;7.986;2022-10-31T03:15:30;4.27;;;2.77;;
4345;SDS011;2186;49.866;7.986;2022-10-31T03:20:30;5.87;;;3.07;;
4345;SDS011;2186;49.866;7.986;2022-10-31T03:23:05;6.50;;;1.77;;
4345;SDS011;2186;49.866;7.986;2022-10-31T03:25:34;2.50;;;1.93;;
4345;SDS011;2186;49.866;7.986;2022-10-31T03:28:03;1.27;;;1.17;;
4345;SDS011;2186;49.866;7.986;2022-10-31T03:30:32;1.33;;;1.10;;
4345;SDS011;2186;49.866;7.986;2022-10-31T03:33:02;4.80;;;2.50;;
4345;SDS011;2186;49.866;7.986;2022-10-31T03:35:34;1.50;;;1.30;;
4345;SDS011;2186;49.866;7.986;2022-10-31T03:38:02;2.73;;;1.80;;
4345;SDS011;2186;49.866;7.986;2022-10-31T03:40:32;1.83;;;1.37;;
4345;SDS011;2186;49.866;7.986;2022-10-31T03:43:03;2.00;;;1.90;;
4345;SDS011;2186;49.866;7.986;2022-10-31T03:45:36;1.33;;;1.23;;
4345;SDS011;2186;49.866;7.986;2022-10-31T03:48:08;2.23;;;2.13;;
4345;SDS011;2186;49.866;7.986;2022-10-31T03:50:38;2.20;;;1.73;;
4345;SDS011;2186;49.866;7.986;2022-10-31T03:53:16;0.60;;;0.53;;
4345;SDS011;2186;49.866;7.986;2022-10-31T03:55:51;1.53;;;1.20;;
4345;SDS011;2186;49.866;7.986;2022-10-31T03:58:24;2.17;;;2.07;;
4345;SDS011;2186;49.866;7.986;2022-10-31T04:00:55;1.33;;;0.97;;
4345;SDS011;2186;49.866;7.986;2022-10-31T04:03:27;1.30;;;1.20;;
4345;SDS011;2186;49.866;7.986;2022-10-31T04:05:58;2.40;;;2.30;;
4345;SDS011;2186;49.866;7.986;2022-10-31T04:08:30;1.73;;;1.47;;
4345;SDS011;2186;49.866;7.986;2022-10-31T04:10:59;2.10;;;1.80;;
4345;SDS011;2186;49.866;7.986;2022-10-31T04:13:29;1.57;;;1.37;;
4345;SDS011;2186;49.866;7.986;2022-10-31T04:15:57;0.90;;;0.90;;
4345;SDS011;2186;49.866;7.986;2022-10-31T04:18:24;2.40;;;2.30;;
4345;SDS011;2186;49.866;7.986;2022-10-31T04:21:01;1.53;;;1.43;;
4345;SDS011;2186;49.866;7.986;2022-10-31T04:23:29;1.13;;;1.03;;
4345;SDS011;2186;49.866;7.986;2022-10-31T04:25:56;1.23;;;1.20;;
4345;SDS011;2186;49.866;7.986;2022-10-31T04:28:22;1.27;;;1.17;;
4345;SDS011;2186;49.866;7.986;2022-10-31T04:30:49;6.70;;;2.47;;
4345;SDS011;2186;49.866;7.986;2022-10-31T04:33:16;21.57;;;2.40;;
4345;SDS011;2186;49.866;7.986;2022-10-31T04:35:43;2.27;;;1.63;;
4345;SDS011;2186;49.866;7.986;2022-10-31T04:38:10;2.20;;;2.10;;
4345;SDS011;2186;49.866;7.986;2022-10-31T04:40:36;2.57;;;1.00;;
4345;SDS011;2186;49.866;7.986;2022-10-31T04:43:02;2.90;;;2.57;;
4345;SDS011;2186;49.866;7.986;2022-10-31T04:45:29;1.77;;;1.10;;
4345;SDS011;2186;49.866;7.986;2022-10-31T04:47:56;3.40;;;2.57;;
4345;SDS011;2186;49.866;7.986;2022-10-31T04:50:23;1.77;;;1.67;;
4345;SDS011;2186;49.866;7.986;2022-10-31T04:52:49;1.87;;;1.70;;
4345;SDS011;2186;49.866;7.986;2022-10-31T04:55:16;1.40;;;1.30;;
4345;SDS011;2186;49.866;7.986;2022-10-31T04:57:43;10.77;;;2.57;;
4345;SDS011;2186;49.866;7.986;2022-10-31T05:00:12;3.43;;;1.57;;
4345;SDS011;2186;49.866;7.986;2022-10-31T05:02:44;1.27;;;1.17;;
4345;SDS011;2186;49.866;7.986;2022-10-31T05:05:12;1.03;;;0.97;;
4345;SDS011;2186;49.866;7.986;2022-10-31T05:07:40;2.70;;;2.00;;
4345;SDS011;2186;49.866;7.986;2022-10-31T05:10:10;1.27;;;1.13;;
4345;SDS011;2186;49.866;7.986;2022-10-31T05:12:45;1.63;;;1.53;;
4345;SDS011;2186;49.866;7.986;2022-10-31T05:15:16;2.40;;;1.90;;
4345;SDS011;2186;49.866;7.986;2022-10-31T05:17:43;1.33;;;1.27;;
4345;SDS011;2186;49.866;7.986;2022-10-31T05:20:11;4.87;;;1.37;;
4345;SDS011;2186;49.866;7.986;2022-10-31T05:22:42;6.73;;;1.40;;
4345;SDS011;2186;49.866;7.986;2022-10-31T05:25:09;1.57;;;1.47;;
4345;SDS011;2186;49.866;7.986;2022-10-31T05:27:40;2.50;;;2.40;;
4345;SDS011;2186;49.866;7.986;2022-10-31T05:30:07;2.63;;;2.50;;
4345;SDS011;2186;49.866;7.986;2022-10-31T05:35:06;2.37;;;2.23;;
4345;SDS011;2186;49.866;7.986;2022-10-31T05:37:37;3.63;;;2.43;;
4345;SDS011;2186;49.866;7.986;2022-10-31T05:40:04;2.47;;;2.37;;
4345;SDS011;2186;49.866;7.986;2022-10-31T05:42:33;1.83;;;1.73;;
4345;SDS011;2186;49.866;7.986;2022-10-31T05:45:01;2.80;;;2.07;;
4345;SDS011;2186;49.866;7.986;2022-10-31T05:47:27;3.53;;;2.70;;
4345;SDS011;2186;49.866;7.986;2022-10-31T05:49:54;12.97;;;2.77;;
4345;SDS011;2186;49.866;7.986;2022-10-31T05:52:20;2.20;;;2.10;;
4345;SDS011;2186;49.866;7.986;2022-10-31T05:54:46;2.40;;;2.30;;
4345;SDS011;2186;49.866;7.986;2022-10-31T05:57:13;7.37;;;2.77;;
4345;SDS011;2186;49.866;7.986;2022-10-31T05:59:39;11.87;;;1.83;;
4345;SDS011;2186;49.866;7.986;2022-10-31T06:02:05;19.70;;;2.53;;
4345;SDS011;2186;49.866;7.986;2022-10-31T06:04:32;2.13;;;2.03;;
4345;SDS011;2186;49.866;7.986;2022-10-31T06:06:59;3.40;;;2.37;;
4345;SDS011;2186;49.866;7.986;2022-10-31T06:09:25;2.23;;;2.13;;
4345;SDS011;2186;49.866;7.986;2022-10-31T06:11:51;1.87;;;1.77;;
4345;SDS011;2186;49.866;7.986;2022-10-31T06:14:18;2.30;;;2.10;;
4345;SDS011;2186;49.866;7.986;2022-10-31T06:16:44;2.73;;;2.03;;
4345;SDS011;2186;49.866;7.986;2022-10-31T06:19:11;3.43;;;3.07;;
4345;SDS011;2186;49.866;7.986;2022-10-31T06:21:37;3.60;;;3.30;;
4345;SDS011;2186;49.866;7.986;2022-10-31T06:24:03;2.30;;;1.70;;
4345;SDS011;2186;49.866;7.986;2022-10-31T06:26:30;5.37;;;2.30;;
4345;SDS011;2186;49.866;7.986;2022-10-31T06:28:56;6.77;;;2.83;;
4345;SDS011;2186;49.866;7.986;2022-10-31T06:31:29;3.47;;;3.17;;
4345;SDS011;2186;49.866;7.986;2022-10-31T06:33:56;2.40;;;2.07;;
4345;SDS011;2186;49.866;7.986;2022-10-31T06:36:22;3.63;;;2.00;;
4345;SDS011;2186;49.866;7.986;2022-10-31T06:38:49;3.37;;;2.50;;
4345;SDS011;2186;49.866;7.986;2022-10-31T06:41:15;3.60;;;3.30;;
4345;SDS011;2186;49.866;7.986;2022-10-31T06:43:41;3.27;;;2.97;;
4345;SDS011;2186;49.866;7.986;2022-10-31T06:46:08;4.00;;;3.73;;
4345;SDS011;2186;49.866;7.986;2022-10-31T06:48:34;2.73;;;1.93;;
4345;SDS011;2186;49.866;7.986;2022-10-31T06:51:01;2.80;;;2.37;;
4345;SDS011;2186;49.866;7.986;2022-10-31T06:53:28;3.67;;;3.17;;
4345;SDS011;2186;49.866;7.986;2022-10-31T06:55:55;2.93;;;2.73;;
4345;SDS011;2186;49.866;7.986;2022-10-31T06:58:22;10.03;;;2.80;;
4345;SDS011;2186;49.866;7.986;2022-10-31T07:00:49;1.90;;;1.80;;
4345;SDS011;2186;49.866;7.986;2022-10-31T07:03:16;2.87;;;2.77;;
4345;SDS011;2186;49.866;7.986;2022-10-31T07:05:43;4.20;;;2.43;;
4345;SDS011;2186;49.866;7.986;2022-10-31T07:08:10;13.07;;;3.90;;
4345;SDS011;2186;49.866;7.986;2022-10-31T07:10:38;1.80;;;1.70;;
4345;SDS011;2186;49.866;7.986;2022-10-31T07:13:08;10.30;;;3.33;;
4345;SDS011;2186;49.866;7.986;2022-10-31T07:15:38;2.10;;;1.97;;
4345;SDS011;2186;49.866;7.986;2022-10-31T07:18:07;12.07;;;3.30;;
4345;SDS011;2186;49.866;7.986;2022-10-31T07:20:35;3.37;;;3.17;;
4345;SDS011;2186;49.866;7.986;2022-10-31T07:23:02;2.00;;;1.50;;
4345;SDS011;2186;49.866;7.986;2022-10-31T07:25:30;2.10;;;1.90;;
4345;SDS011;2186;49.866;7.986;2022-10-31T07:27:56;11.83;;;2.80;;
4345;SDS011;2186;49.866;7.986;2022-10-31T07:30:23;5.80;;;3.60;;
4345;SDS011;2186;49.866;7.986;2022-10-31T07:32:50;3.33;;;2.37;;
4345;SDS011;2186;49.866;7.986;2022-10-31T07:35:24;3.43;;;3.10;;
4345;SDS011;2186;49.866;7.986;2022-10-31T07:37:52;1.80;;;1.70;;
4345;SDS011;2186;49.866;7.986;2022-10-31T07:40:19;6.83;;;1.80;;
4345;SDS011;2186;49.866;7.986;2022-10-31T07:42:47;21.27;;;3.70;;
4345;SDS011;2186;49.866;7.986;2022-10-31T07:45:16;20.67;;;3.07;;
4345;SDS011;2186;49.866;7.986;2022-10-31T07:47:48;3.23;;;3.03;;
4345;SDS011;2186;49.866;7.986;2022-10-31T07:50:20;5.70;;;2.53;;
4345;SDS011;2186;49.866;7.986;2022-10-31T07:52:57;10.83;;;3.00;;
4345;SDS011;2186;49.866;7.986;2022-10-31T07:55:28;4.37;;;2.00;;
4345;SDS011;2186;49.866;7.986;2022-10-31T07:57:58;2.43;;;2.33;;
4345;SDS011;2186;49.866;7.986;2022-10-31T08:00:26;2.60;;;2.30;;
4345;SDS011;2186;49.866;7.986;2022-10-31T08:02:56;4.40;;;1.17;;
4345;SDS011;2186;49.866;7.986;2022-10-31T08:05:25;2.30;;;2.10;;
4345;SDS011;2186;49.866;7.986;2022-10-31T08:07:51;4.00;;;1.70;;
4345;SDS011;2186;49.866;7.986;2022-10-31T08:10:18;13.73;;;2.43;;
4345;SDS011;2186;49.866;7.986;2022-10-31T08:12:45;3.23;;;2.90;;
4345;SDS011;2186;49.866;7.986;2022-10-31T08:15:12;10.50;;;2.80;;
4345;SDS011;2186;49.866;7.986;2022-10-31T08:17:38;3.03;;;1.73;;
4345;SDS011;2186;49.866;7.986;2022-10-31T08:20:05;3.33;;;1.93;;
4345;SDS011;2186;49.866;7.986;2022-10-31T08:22:32;1.40;;;1.30;;
4345;SDS011;2186;49.866;7.986;2022-10-31T08:24:58;3.40;;;1.60;;
4345;SDS011;2186;49.866;7.986;2022-10-31T08:27:24;1.90;;;1.80;;
4345;SDS011;2186;49.866;7.986;2022-10-31T08:29:51;8.27;;;2.00;;
4345;SDS011;2186;49.866;7.986;2022-10-31T08:32:17;2.83;;;2.63;;
4345;SDS011;2186;49.866;7.986;2022-10-31T08:34:43;2.00;;;1.87;;
4345;SDS011;2186;49.866;7.986;2022-10-31T08:37:10;18.03;;;2.20;;
4345;SDS011;2186;49.866;7.986;2022-10-31T08:39:36;2.60;;;2.20;;
4345;SDS011;2186;49.866;7.986;2022-10-31T08:42:03;4.30;;;3.73;;
4345;SDS011;2186;49.866;7.986;2022-10-31T08:44:29;3.30;;;2.53;;
4345;SDS011;2186;49.866;7.986;2022-10-31T08:46:55;4.80;;;3.30;;
4345;SDS011;2186;49.866;7.986;2022-10-31T08:49:22;2.27;;;2.07;;
4345;SDS011;2186;49.866;7.986;2022-10-31T08:51:48;4.97;;;4.57;;
4345;SDS011;2186;49.866;7.986;2022-10-31T08:54:15;10.43;;;2.40;;
4345;SDS011;2186;49.866;7.986;2022-10-31T08:56:41;4.87;;;2.00;;
4345;SDS011;2186;49.866;7.986;2022-10-31T08:59:07;2.03;;;1.93;;
4345;SDS011;2186;49.866;7.986;2022-10-31T09:01:34;2.43;;;2.23;;
4345;SDS011;2186;49.866;7.986;2022-10-31T09:04:00;2.23;;;2.13;;
4345;SDS011;2186;49.866;7.986;2022-10-31T09:06:27;4.20;;;3.90;;
4345;SDS011;2186;49.866;7.986;2022-10-31T09:08:53;3.60;;;2.23;;
4345;SDS011;2186;49.866;7.986;2022-10-31T09:11:19;5.20;;;4.00;;
4345;SDS011;2186;49.866;7.986;2022-10-31T09:13:50;3.07;;;2.63;;
4345;SDS011;2186;49.866;7.986;2022-10-31T09:16:18;2.40;;;2.20;;
4345;SDS011;2186;49.866;7.986;2022-10-31T09:18:44;3.00;;;2.80;;
4345;SDS011;2186;49.866;7.986;2022-10-31T09:21:11;2.40;;;2.20;;
4345;SDS011;2186;49.866;7.986;2022-10-31T09:23:37;3.23;;;3.03;;
4345;SDS011;2186;49.866;7.986;2022-10-31T09:26:04;6.23;;;2.27;;
4345;SDS011;2186;49.866;7.986;2022-10-31T09:28:30;18.43;;;2.23;;
4345;SDS011;2186;49.866;7.986;2022-10-31T09:30:58;2.30;;;1.63;;
4345;SDS011;2186;49.866;7.986;2022-10-31T09:33:24;8.50;;;2.00;;
4345;SDS011;2186;49.866;7.986;2022-10-31T09:35:50;6.50;;;3.47;;
4345;SDS011;2186;49.866;7.986;2022-10-31T09:38:18;6.80;;;2.13;;
4345;SDS011;2186;49.866;7.986;2022-10-31T09:40:51;7.17;;;2.50;;
4345;SDS011;2186;49.866;7.986;2022-10-31T09:43:37;2.30;;;2.10;;
4345;SDS011;2186;49.866;7.986;2022-10-31T09:49:13;2.20;;;2.10;;
4345;SDS011;2186;49.866;7.986;2022-10-31T09:51:45;12.70;;;2.67;;
4345;SDS011;2186;49.866;7.986;2022-10-31T09:54:19;5.57;;;2.00;;
4345;SDS011;2186;49.866;7.986;2022-10-31T09:56:50;9.83;;;1.83;;
4345;SDS011;2186;49.866;7.986;2022-10-31T09:59:23;4.90;;;2.83;;
4345;SDS011;2186;49.866;7.986;2022-10-31T10:01:55;7.20;;;1.93;;
4345;SDS011;2186;49.866;7.986;2022-10-31T10:04:42;2.70;;;2.50;;
4345;SDS011;2186;49.866;7.986;2022-10-31T10:24:12;3.30;;;3.03;;
4345;SDS011;2186;49.866;7.986;2022-10-31T10:26:58;5.03;;;2.87;;
4345;SDS011;2186;49.866;7.986;2022-10-31T10:29:47;4.97;;;3.10;;
4345;SDS011;2186;49.866;7.986;2022-10-31T10:32:30;15.53;;;2.70;;
4345;SDS011;2186;49.866;7.986;2022-10-31T10:35:08;8.80;;;2.47;;
4345;SDS011;2186;49.866;7.986;2022-10-31T10:37:40;4.07;;;3.50;;
4345;SDS011;2186;49.866;7.986;2022-10-31T10:40:18;3.33;;;3.03;;
4345;SDS011;2186;49.866;7.986;2022-10-31T10:43:31;12.60;;;8.07;;
4345;SDS011;2186;49.866;7.986;2022-10-31T10:52:26;3.40;;;3.20;;
4345;SDS011;2186;49.866;7.986;2022-10-31T10:57:55;11.13;;;3.27;;
4345;SDS011;2186;49.866;7.986;2022-10-31T11:00:26;4.63;;;3.53;;
4345;SDS011;2186;49.866;7.986;2022-10-31T11:02:57;9.30;;;3.37;;
4345;SDS011;2186;49.866;7.986;2022-10-31T11:05:29;3.83;;;3.53;;
4345;SDS011;2186;49.866;7.986;2022-10-31T11:08:01;4.27;;;2.97;;
4345;SDS011;2186;49.866;7.986;2022-10-31T11:10:28;8.33;;;3.60;;
4345;SDS011;2186;49.866;7.986;2022-10-31T11:13:00;11.70;;;3.50;;
4345;SDS011;2186;49.866;7.986;2022-10-31T11:15:49;3.70;;;3.50;;
4345;SDS011;2186;49.866;7.986;2022-10-31T11:18:22;10.00;;;3.63;;
4345;SDS011;2186;49.866;7.986;2022-10-31T11:20:55;3.43;;;3.20;;
4345;SDS011;2186;49.866;7.986;2022-10-31T11:23:24;4.03;;;3.73;;
4345;SDS011;2186;49.866;7.986;2022-10-31T11:25:54;3.77;;;3.43;;
4345;SDS011;2186;49.866;7.986;2022-10-31T11:28:26;3.93;;;3.63;;
4345;SDS011;2186;49.866;7.986;2022-10-31T11:30:56;9.93;;;7.40;;
4345;SDS011;2186;49.866;7.986;2022-10-31T11:33:26;4.97;;;4.57;;
4345;SDS011;2186;49.866;7.986;2022-10-31T11:36:02;14.60;;;4.20;;
4345;SDS011;2186;49.866;7.986;2022-10-31T11:38:44;14.80;;;3.00;;
4345;SDS011;2186;49.866;7.986;2022-10-31T11:41:13;4.57;;;3.50;;
4345;SDS011;2186;49.866;7.986;2022-10-31T11:43:46;17.67;;;4.03;;
4345;SDS011;2186;49.866;7.986;2022-10-31T11:46:21;4.27;;;3.97;;
4345;SDS011;2186;49.866;7.986;2022-10-31T11:49:01;15.83;;;3.23;;
4345;SDS011;2186;49.866;7.986;2022-10-31T11:51:30;4.27;;;3.97;;
4345;SDS011;2186;49.866;7.986;2022-10-31T11:53:59;14.53;;;3.60;;
4345;SDS011;2186;49.866;7.986;2022-10-31T11:56:41;18.93;;;5.10;;
4345;SDS011;2186;49.866;7.986;2022-10-31T11:59:18;7.90;;;4.43;;
4345;SDS011;2186;49.866;7.986;2022-10-31T12:01:50;6.63;;;4.03;;
4345;SDS011;2186;49.866;7.986;2022-10-31T12:04:18;6.03;;;4.07;;
4345;SDS011;2186;49.866;7.986;2022-10-31T12:06:45;4.27;;;3.97;;
4345;SDS011;2186;49.866;7.986;2022-10-31T12:09:23;30.97;;;3.33;;
4345;SDS011;2186;49.866;7.986;2022-10-31T12:15:00;10.03;;;3.10;;
4345;SDS011;2186;49.866;7.986;2022-10-31T12:17:44;7.40;;;3.43;;
4345;SDS011;2186;49.866;7.986;2022-10-31T12:23:23;5.40;;;3.60;;
4345;SDS011;2186;49.866;7.986;2022-10-31T12:29:03;16.90;;;3.30;;
4345;SDS011;2186;49.866;7.986;2022-10-31T12:40:33;4.10;;;2.93;;
4345;SDS011;2186;49.866;7.986;2022-10-31T12:52:17;5.13;;;4.40;;
4345;SDS011;2186;49.866;7.986;2022-10-31T12:55:00;2.97;;;2.77;;
4345;SDS011;2186;49.866;7.986;2022-10-31T13:00:12;5.47;;;3.53;;
4345;SDS011;2186;49.866;7.986;2022-10-31T13:02:46;13.10;;;4.57;;
4345;SDS011;2186;49.866;7.986;2022-10-31T13:05:54;8.27;;;6.40;;
4345;SDS011;2186;49.866;7.986;2022-10-31T13:08:17;31.47;;;6.10;;
4345;SDS011;2186;49.866;7.986;2022-10-31T13:10:52;31.07;;;5.80;;
4345;SDS011;2186;49.866;7.986;2022-10-31T13:13:23;7.00;;;4.80;;
4345;SDS011;2186;49.866;7.986;2022-10-31T13:15:54;5.40;;;3.20;;
4345;SDS011;2186;49.866;7.986;2022-10-31T13:18:31;22.60;;;4.73;;
4345;SDS011;2186;49.866;7.986;2022-10-31T13:21:05;6.30;;;3.77;;
4345;SDS011;2186;49.866;7.986;2022-10-31T13:23:37;10.03;;;3.50;;
4345;SDS011;2186;49.866;7.986;2022-10-31T13:26:23;4.63;;;4.23;;
4345;SDS011;2186;49.866;7.986;2022-10-31T13:32:04;2.83;;;2.73;;
4345;SDS011;2186;49.866;7.986;2022-10-31T13:34:43;6.57;;;4.57;;
4345;SDS011;2186;49.866;7.986;2022-10-31T13:42:57;4.20;;;3.80;;
4345;SDS011;2186;49.866;7.986;2022-10-31T13:45:57;3.60;;;3.10;;
4345;SDS011;2186;49.866;7.986;2022-10-31T13:50:58;12.20;;;3.97;;
4345;SDS011;2186;49.866;7.986;2022-10-31T13:53:36;5.23;;;3.80;;
4345;SDS011;2186;49.866;7.986;2022-10-31T13:58:34;4.30;;;4.00;;
4345;SDS011;2186;49.866;7.986;2022-10-31T14:03:46;4.60;;;3.30;;
4345;SDS011;2186;49.866;7.986;2022-10-31T14:06:38;8.83;;;2.67;;
4345;SDS011;2186;49.866;7.986;2022-10-31T14:09:06;7.60;;;4.87;;
4345;SDS011;2186;49.866;7.986;2022-10-31T14:11:45;4.60;;;3.67;;
4345;SDS011;2186;49.866;7.986;2022-10-31T14:14:13;4.43;;;3.97;;
4345;SDS011;2186;49.866;7.986;2022-10-31T14:16:42;3.93;;;3.57;;
4345;SDS011;2186;49.866;7.986;2022-10-31T14:19:17;8.13;;;5.00;;
4345;SDS011;2186;49.866;7.986;2022-10-31T14:21:46;7.10;;;4.73;;
4345;SDS011;2186;49.866;7.986;2022-10-31T14:24:15;11.50;;;4.00;;
4345;SDS011;2186;49.866;7.986;2022-10-31T14:27:29;13.90;;;4.27;;
4345;SDS011;2186;49.866;7.986;2022-10-31T14:29:49;6.23;;;4.17;;
4345;SDS011;2186;49.866;7.986;2022-10-31T14:32:19;7.13;;;3.63;;
4345;SDS011;2186;49.866;7.986;2022-10-31T14:34:57;6.67;;;3.53;;
4345;SDS011;2186;49.866;7.986;2022-10-31T14:51:23;8.23;;;4.20;;
4345;SDS011;2186;49.866;7.986;2022-10-31T14:53:54;6.37;;;4.13;;
4345;SDS011;2186;49.866;7.986;2022-10-31T14:56:26;13.20;;;4.40;;
4345;SDS011;2186;49.866;7.986;2022-10-31T14:58:55;26.97;;;4.40;;
4345;SDS011;2186;49.866;7.986;2022-10-31T15:01:27;3.23;;;2.60;;
4345;SDS011;2186;49.866;7.986;2022-10-31T15:04:07;14.60;;;3.37;;
4345;SDS011;2186;49.866;7.986;2022-10-31T15:09:54;3.83;;;3.17;;
4345;SDS011;2186;49.866;7.986;2022-10-31T15:12:26;4.80;;;2.80;;
4345;SDS011;2186;49.866;7.986;2022-10-31T15:14:54;16.27;;;4.60;;
4345;SDS011;2186;49.866;7.986;2022-10-31T15:17:22;5.67;;;2.80;;
4345;SDS011;2186;49.866;7.986;2022-10-31T15:19:51;6.23;;;3.80;;
4345;SDS011;2186;49.866;7.986;2022-10-31T15:22:22;5.93;;;4.87;;
4345;SDS011;2186;49.866;7.986;2022-10-31T15:24:49;3.23;;;3.03;;
4345;SDS011;2186;49.866;7.986;2022-10-31T15:27:22;25.07;;;4.80;;
4345;SDS011;2186;49.866;7.986;2022-10-31T15:29:53;10.17;;;4.40;;
4345;SDS011;2186;49.866;7.986;2022-10-31T15:32:25;10.00;;;4.43;;
4345;SDS011;2186;49.866;7.986;2022-10-31T15:34:53;9.30;;;4.47;;
4345;SDS011;2186;49.866;7.986;2022-10-31T15:37:22;15.67;;;3.50;;
4345;SDS011;2186;49.866;7.986;2022-10-31T15:39:51;5.03;;;2.30;;
4345;SDS011;2186;49.866;7.986;2022-10-31T15:42:19;7.70;;;4.47;;
4345;SDS011;2186;49.866;7.986;2022-10-31T15:44:50;9.27;;;4.93;;
4345;SDS011;2186;49.866;7.986;2022-10-31T15:47:30;7.93;;;3.97;;
4345;SDS011;2186;49.866;7.986;2022-10-31T15:49:59;7.60;;;5.13;;
4345;SDS011;2186;49.866;7.986;2022-10-31T15:55:19;7.40;;;3.40;;
4345;SDS011;2186;49.866;7.986;2022-10-31T15:57:50;5.43;;;4.13;;
4345;SDS011;2186;49.866;7.986;2022-10-31T16:02:48;6.33;;;4.67;;
4345;SDS011;2186;49.866;7.986;2022-10-31T16:05:15;13.80;;;3.67;;
4345;SDS011;2186;49.866;7.986;2022-10-31T16:07:50;5.10;;;4.60;;
4345;SDS011;2186;49.866;7.986;2022-10-31T16:10:22;5.90;;;5.30;;
4345;SDS011;2186;49.866;7.986;2022-10-31T16:12:52;7.67;;;4.33;;
4345;SDS011;2186;49.866;7.986;2022-10-31T16:15:20;32.23;;;7.50;;
4345;SDS011;2186;49.866;7.986;2022-10-31T16:17:48;5.23;;;4.83;;
4345;SDS011;2186;49.866;7.986;2022-10-31T16:20:21;4.20;;;3.00;;
4345;SDS011;2186;49.866;7.986;2022-10-31T16:22:51;5.70;;;3.77;;
4345;SDS011;2186;49.866;7.986;2022-10-31T16:25:22;4.37;;;4.17;;
4345;SDS011;2186;49.866;7.986;2022-10-31T16:28:01;5.77;;;4.40;;
4345;SDS011;2186;49.866;7.986;2022-10-31T16:30:40;18.27;;;5.23;;
4345;SDS011;2186;49.866;7.986;2022-10-31T16:39:02;6.33;;;5.20;;
4345;SDS011;2186;49.866;7.986;2022-10-31T16:41:29;8.33;;;3.90;;
4345;SDS011;2186;49.866;7.986;2022-10-31T16:43:55;21.30;;;4.87;;
4345;SDS011;2186;49.866;7.986;2022-10-31T16:46:23;11.20;;;3.40;;
4345;SDS011;2186;49.866;7.986;2022-10-31T16:48:51;9.07;;;4.93;;
4345;SDS011;2186;49.866;7.986;2022-10-31T16:51:19;2.27;;;2.13;;
4345;SDS011;2186;49.866;7.986;2022-10-31T16:53:46;7.17;;;4.37;;
4345;SDS011;2186;49.866;7.986;2022-10-31T16:56:24;13.30;;;4.67;;
4345;SDS011;2186;49.866;7.986;2022-10-31T16:58:55;6.43;;;2.90;;
4345;SDS011;2186;49.866;7.986;2022-10-31T17:01:22;7.37;;;5.70;;
4345;SDS011;2186;49.866;7.986;2022-10-31T17:03:49;35.20;;;5.03;;
4345;SDS011;2186;49.866;7.986;2022-10-31T17:06:15;9.20;;;4.73;;
4345;SDS011;2186;49.866;7.986;2022-10-31T17:08:42;12.23;;;4.53;;
4345;SDS011;2186;49.866;7.986;2022-10-31T17:11:12;9.77;;;5.20;;
4345;SDS011;2186;49.866;7.986;2022-10-31T17:13:41;31.67;;;4.77;;
4345;SDS011;2186;49.866;7.986;2022-10-31T17:16:07;4.87;;;4.57;;
4345;SDS011;2186;49.866;7.986;2022-10-31T17:18:34;15.33;;;5.10;;
4345;SDS011;2186;49.866;7.986;2022-10-31T17:21:01;12.37;;;5.60;;
4345;SDS011;2186;49.866;7.986;2022-10-31T17:23:29;4.33;;;4.10;;
4345;SDS011;2186;49.866;7.986;2022-10-31T17:25:55;24.03;;;4.10;;
4345;SDS011;2186;49.866;7.986;2022-10-31T17:28:22;11.50;;;5.10;;
4345;SDS011;2186;49.866;7.986;2022-10-31T17:30:48;4.93;;;4.33;;
4345;SDS011;2186;49.866;7.986;2022-10-31T17:33:15;4.27;;;3.90;;